This is the latest recevied weather packets stored in our database for station/object KR4DFQ. If no packets are shown the sender has not sent any weather packets the latest 10 day(s).
| Time | Temp. | Humidity | Pressure | Rain* | Wind** | Luminosity | Snow |
|---|---|---|---|---|---|---|---|
| 1787668616 | 33.89° C | 62% | 1019.1 hPa | 0 mm | - | 705 W/m² | - |
| 1787668311 | 33.33° C | 61% | 1019.2 hPa | 0 mm | - | 691 W/m² | - |
| 1787668011 | 33.89° C | 61% | 1018.9 hPa | 0 mm | - | 668 W/m² | - |
| 1787667706 | 33.33° C | 60% | 1019 hPa | 0 mm | - | 647 W/m² | - |
| 1787667402 | 33.33° C | 62% | 1018.9 hPa | 0 mm | - | 634 W/m² | - |
| 1787667097 | 32.78° C | 60% | 1018.9 hPa | 0 mm | - | 617 W/m² | - |
| 1787666792 | 32.78° C | 62% | 1018.8 hPa | 0 mm | - | 586 W/m² | - |
| 1787666487 | 32.22° C | 65% | 1018.7 hPa | 0 mm | - | 569 W/m² | - |
| 1787666182 | 32.22° C | 68% | 1018.8 hPa | 0 mm | - | 542 W/m² | - |
| 1787665878 | 32.22° C | 67% | 1018.8 hPa | 0 mm | - | 552 W/m² | - |
| 1787665573 | 31.67° C | 68% | 1018.5 hPa | 0 mm | - | 560 W/m² | - |
| 1787665273 | 32.22° C | 66% | 1018.6 hPa | 0 mm | - | 515 W/m² | - |
| 1787664970 | 32.22° C | 67% | 1018.4 hPa | 0 mm | - | 495 W/m² | - |
| 1787664666 | 31.11° C | 68% | 1018.2 hPa | 0 mm | - | 478 W/m² | - |
| 1787664365 | 30.56° C | 70% | 1018.4 hPa | 0 mm | - | 406 W/m² | - |
| 1787664060 | 31.11° C | 69% | 1018.5 hPa | 0 mm | - | 92 W/m² | - |
| 1787663755 | 32.22° C | 66% | 1018.3 hPa | 0 mm | - | 122 W/m² | - |
| 1787663450 | 32.78° C | 65% | 1018.3 hPa | 0 mm | - | 353 W/m² | - |
| 1787663146 | 32.78° C | 65% | 1018.3 hPa | 0 mm | - | 309 W/m² | - |
| 1787662842 | 32.22° C | 66% | 1018.3 hPa | 0 mm | - | 303 W/m² | - |
| 1787662541 | 31.67° C | 68% | 1018.2 hPa | 0 mm | - | 291 W/m² | - |
| 1787662237 | 31.67° C | 70% | 1018.2 hPa | 0 mm | - | 271 W/m² | - |
| 1787661932 | 31.67° C | 69% | 1018.2 hPa | 0 mm | - | 250 W/m² | - |
| 1787661632 | 31.67° C | 69% | 1018 hPa | 0 mm | - | 232 W/m² | - |
| 1787661331 | 30.56° C | 72% | 1018 hPa | 0 mm | - | 218 W/m² | - |
* Rain latest hour (hover to see other rain measurements)
** Current wind speed in m/s (hover to see current wind gust speed)